Oestergarnsholm, Sweden

8:55 AM CET on December 08, 2016 (GMT +0100)
Butrajvs | | Change Station

Elev 43 ft 57.34 °N, 18.70 °E | Updated 26 seconds ago

Mostly Cloudy
Mostly Cloudy
48.9 °F
Feels Like 45 °F
N
9.9
Wind Variable Wind from SW
Gusts 12.8 mph

Today
High -- | Low -- °F
--% Chance of Precip.
Yesterday
High -- | Low -- °F
Precip. -- in
Pressure 29.56 in
Visibility 6.2 miles
Clouds Mostly Cloudy 1800 ft
Windchill 45 °F
Dew Point 48 °F
Humidity 97%
Rainfall Not available.
Snow Depth Not available.
8:11 AM 3:00 PM
First Quarter, 61% visible
METAR ESSV 080750Z 24021KT 9999 BKN018 09/08 Q1001 R21/29//77
Pressure 29.56 in
Visibility 6.2 miles
Clouds Mostly Cloudy 1800 ft
Windchill 45 °F
Dew Point 48 °F
Humidity 97%
Rainfall Not available.
Snow Depth Not available.
8:11 AM 3:00 PM
First Quarter, 61% visible
METAR ESSV 080750Z 24021KT 9999 BKN018 09/08 Q1001 R21/29//77

10-Day Weather Forecast

×

Almanac

Astronomy

Dec. 08, 2016 Rise Set
Actual Time
Civil Twilight
Nautical Twilight
Astronomical Twilight
Moon
Length of Visible Light
Length of Day
Tomorrow will be .
, % of the Moon is Illuminated

Today's Extremes

Country Highs Country Lows

Community

WunderPhotos

Upload Photos

1,956,259 photos uploaded!

WunderBlog® & News

Nearby

Air Quality

  Air Quality AQ Index Pollutant
Not available.

Snow Depth

Station Depth Elevation

Earthquake Activity

City Distance Mag. Time & Date
Minimum magnitude displayed is 2.5.

Coastal Water Temperatures

Place Temperature

Stations

Nearby Weather Stations

Station Location Temp. Windchill Dew Point Humidity Wind Precip. Elev Updated Type